Time;durP1;ratioP1;P1;durP2;ratioP2;P2;SDS_P1;SDS_P2;PMS_P1;PMS_P2;Temp;Humidity;BMP_temperature;BMP_pressure;BME280_temperature;BME280_humidity;BME280_pressure;Samples;Min_cycle;Max_cycle;Signal;HPM_P1;HPM_P2
2023/01/05 00:01:49;;;;;;;52.92;10.85;;;12.80;99.90;;;12.94;88.51;101530.53;5093890;28;20097;-68
2023/01/05 00:04:17;;;;;;;56.97;12.73;;;12.80;99.90;;;12.89;88.84;101545.59;5093354;28;20389;-69
2023/01/05 00:06:48;;;;;;;56.47;11.82;;;12.70;99.90;;;12.92;88.74;101534.09;5093262;28;20663;-69
2023/01/05 00:09:18;;;;;;;46.83;11.45;;;12.70;99.90;;;12.23;88.83;101415.75;5093600;28;20043;-69
2023/01/05 00:23:03;;;;;;;50.78;12.63;;;12.70;99.90;;;12.93;88.96;101535.88;5092625;28;20509;-69
2023/01/05 00:25:35;;;;;;;48.65;11.80;;;12.70;99.90;;;12.73;89.01;101501.41;5093420;28;20536;-69
2023/01/05 00:28:04;;;;;;;54.63;11.93;;;12.70;99.90;;;12.79;88.80;101530.59;5093361;28;20055;-69
2023/01/05 00:30:37;;;;;;;50.38;12.13;;;12.60;99.90;;;12.65;88.93;101497.91;5093342;28;20413;-69
2023/01/05 00:33:09;;;;;;;51.00;11.45;;;12.60;99.90;;;12.79;89.51;101529.72;5093369;28;20055;-69
2023/01/05 00:35:37;;;;;;;48.53;11.35;;;12.60;99.90;;;12.80;89.51;101532.34;5093025;28;20478;-68
2023/01/05 00:38:08;;;;;;;52.60;11.63;;;12.60;99.90;;;12.63;89.52;101508.53;5093146;28;20481;-68
2023/01/05 00:40:39;;;;;;;55.03;11.93;;;12.60;99.90;;;12.81;89.48;101530.59;5091957;28;20048;-68
2023/01/05 00:43:07;;;;;;;59.70;12.20;;;12.60;99.90;;;12.72;90.22;101539.44;5092876;28;20040;-68
2023/01/05 00:45:35;;;;;;;57.17;12.02;;;12.50;99.90;;;12.71;90.26;101537.69;5093255;28;20043;-69
2023/01/05 00:48:05;;;;;;;67.90;12.82;;;12.50;99.90;;;12.68;91.03;101535.94;5093146;28;20086;-69
2023/01/05 00:50:33;;;;;;;63.30;12.65;;;12.50;99.90;;;12.58;91.50;101551.88;5092795;28;20486;-68
2023/01/05 00:53:02;;;;;;;60.22;12.13;;;12.40;99.90;;;12.57;91.68;101518.25;5074930;28;20059;-69
2023/01/05 00:55:31;;;;;;;57.25;11.88;;;12.40;99.90;;;12.61;91.86;101514.72;5091842;28;20135;-68
2023/01/05 00:58:00;;;;;;;70.43;13.20;;;12.40;99.90;;;12.63;92.03;101534.19;5074872;28;20051;-69
2023/01/05 01:00:28;;;;;;;50.85;11.48;;;12.40;99.90;;;12.70;92.28;101533.25;5074874;28;20119;-69
2023/01/05 01:02:56;;;;;;;58.05;11.80;;;12.40;99.90;;;12.65;92.35;101537.72;5074925;28;20252;-69
2023/01/05 01:05:25;;;;;;;57.30;11.50;;;12.40;99.90;;;12.64;92.67;101525.31;5074844;28;20040;-69
2023/01/05 01:07:53;;;;;;;58.17;11.85;;;12.40;99.90;;;12.59;92.89;101537.72;5074846;28;20048;-69
2023/01/05 01:10:24;;;;;;;52.85;11.35;;;12.40;99.90;;;12.60;92.86;101542.16;5092969;28;20043;-68
2023/01/05 01:12:54;;;;;;;53.33;12.93;;;12.40;99.90;;;12.66;92.72;101552.72;5074847;28;20093;-69
2023/01/05 01:15:25;;;;;;;53.70;13.05;;;12.40;99.90;;;12.66;92.51;101560.69;5092833;28;20494;-68
2023/01/05 01:17:53;;;;;;;51.53;12.80;;;12.40;99.90;;;12.71;92.29;101564.25;5093092;28;20048;-68
2023/01/05 01:20:21;;;;;;;53.78;11.63;;;12.50;99.90;;;12.58;92.55;101543.94;5092543;28;20044;-68
2023/01/05 01:22:50;;;;;;;67.88;12.27;;;12.40;99.90;;;12.56;92.79;101558.97;5074723;28;20050;-69
2023/01/05 01:25:18;;;;;;;50.70;11.30;;;12.40;99.90;;;12.34;93.09;101570.47;5092514;28;20036;-68
2023/01/05 01:27:46;;;;;;;53.67;11.48;;;12.30;99.90;;;12.52;92.88;101557.19;5092757;28;20405;-68
2023/01/05 01:30:18;;;;;;;56.78;12.25;;;12.40;99.90;;;12.54;92.96;101561.59;5074610;28;20098;-68
2023/01/05 01:32:47;;;;;;;52.38;11.93;;;12.40;99.90;;;12.49;92.64;101571.34;5092832;28;20094;-68
2023/01/05 01:35:15;;;;;;;52.40;12.18;;;12.30;99.90;;;12.50;92.79;101585.50;5093982;28;20044;-69
2023/01/05 01:37:43;;;;;;;50.42;11.35;;;12.30;99.90;;;12.47;92.69;101575.78;5096253;28;20066;-68
2023/01/05 01:40:12;;;;;;;55.13;11.75;;;12.30;99.90;;;12.38;92.25;101565.19;5078089;28;20036;-69
2023/01/05 01:42:41;;;;;;;49.92;10.50;;;12.30;99.90;;;12.48;91.99;101587.28;5077742;28;20043;-68
2023/01/05 01:45:20;;;;;;;55.83;11.40;;;12.30;99.90;;;12.49;91.61;101579.31;5077978;28;20396;-69
2023/01/05 01:47:54;;;;;;;44.95;10.82;;;12.30;99.90;;;12.30;91.42;101547.47;5096160;28;20048;-68
2023/01/05 01:50:29;;;;;;;39.20;10.15;;;12.30;99.90;;;12.58;90.91;101584.59;5078019;28;20040;-68
2023/01/05 01:53:03;;;;;;;42.47;10.85;;;12.40;99.90;;;12.56;90.53;101601.44;5096024;28;20055;-69
2023/01/05 01:55:32;;;;;;;60.15;11.15;;;12.40;99.90;;;12.51;90.52;101601.44;5095787;28;20036;-68
2023/01/05 01:58:03;;;;;;;45.00;10.20;;;12.40;99.90;;;12.52;90.63;101597.00;5095841;28;20066;-68
2023/01/05 02:00:33;;;;;;;47.90;10.70;;;12.30;99.90;;;12.50;90.74;101599.63;5077793;28;20071;-69
2023/01/05 02:03:02;;;;;;;;;;;12.30;99.90;;;12.50;90.47;101601.44;5095072;28;20134;-69
2023/01/05 02:05:33;;;;;;;50.67;10.13;;;12.40;99.90;;;12.51;90.58;101603.19;5094517;28;19920;-69
2023/01/05 02:08:01;;;;;;;49.47;10.88;;;12.40;99.90;;;12.50;90.47;101604.09;5077582;28;20153;-68
2023/01/05 02:10:45;;;;;;;44.38;10.23;;;12.40;99.90;;;12.28;90.42;101559.84;5077493;28;20050;-68
2023/01/05 02:13:43;;;;;;;56.60;12.23;;;12.40;99.90;;;12.50;90.28;101607.59;5077551;28;20459;-69
2023/01/05 02:16:23;;;;;;;52.42;11.10;;;12.30;99.90;;;12.32;90.42;101583.75;5095592;28;20051;-68
2023/01/05 02:19:16;;;;;;;42.35;10.00;;;12.30;99.90;;;12.55;90.42;101608.50;5077324;28;20072;-68
2023/01/05 02:22:01;;;;;;;49.05;12.35;;;12.30;99.90;;;12.49;90.42;101605.84;5077176;28;20074;-69
2023/01/05 02:25:02;;;;;;;48.13;9.88;;;12.30;99.90;;;12.46;90.41;101607.63;5077354;28;20045;-69
2023/01/05 02:27:52;;;;;;;52.08;11.68;;;12.30;99.90;;;12.52;90.52;101615.59;5095372;28;20115;-68
2023/01/05 02:31:00;;;;;;;50.08;11.55;;;12.30;99.90;;;12.40;90.61;101597.00;5095012;28;20044;-68
2023/01/05 02:33:54;;;;;;;40.17;9.70;;;12.30;99.90;;;12.44;90.96;101610.28;5077137;28;20044;-68
2023/01/05 02:36:30;;;;;;;40.97;10.32;;;12.30;99.90;;;12.48;91.15;101621.78;5077015;28;20482;-68
2023/01/05 02:39:09;;;;;;;46.78;11.40;;;12.30;99.90;;;12.35;91.24;101620.88;5076927;28;20048;-68
2023/01/05 02:41:44;;;;;;;53.17;11.13;;;12.20;99.90;;;12.31;91.17;101619.09;5076984;28;20054;-68
2023/01/05 02:44:16;;;;;;;46.25;11.30;;;12.20;99.90;;;12.36;91.47;101620.00;5076988;28;20093;-69
2023/01/05 02:46:47;;;;;;;44.17;10.65;;;12.20;99.90;;;12.39;91.30;101611.13;5076546;28;20359;-68
2023/01/05 02:49:17;;;;;;;53.75;11.10;;;12.20;99.90;;;12.40;91.23;101615.56;5076723;28;20048;-68
2023/01/05 02:51:54;;;;;;;39.45;9.95;;;12.30;99.90;;;12.43;91.32;101616.47;5076741;28;20047;-68
2023/01/05 02:54:30;;;;;;;39.40;9.73;;;12.30;99.90;;;12.39;91.49;101617.34;5076407;28;20079;-68
2023/01/05 02:57:04;;;;;;;42.60;9.50;;;12.30;99.90;;;12.43;91.25;101610.25;5076710;28;20055;-68
2023/01/05 02:59:38;;;;;;;44.50;9.30;;;12.30;99.90;;;12.45;91.23;101598.78;5076349;28;20052;-68
2023/01/05 03:02:13;;;;;;;44.65;10.18;;;12.30;99.90;;;12.54;91.25;101609.38;5076602;28;20142;-68
2023/01/05 03:04:49;;;;;;;45.28;10.30;;;12.40;99.90;;;12.52;91.63;101610.28;5076546;28;20076;-69
2023/01/05 03:07:24;;;;;;;36.03;10.27;;;12.30;99.90;;;12.49;91.27;101608.50;5076135;28;20068;-69
2023/01/05 03:09:54;;;;;;;46.38;10.25;;;12.30;99.90;;;12.50;91.43;101609.41;5076340;28;20415;-68
2023/01/05 03:15:22;;;;;;;39.53;10.13;;;12.30;99.90;;;12.44;91.64;101609.38;5076040;28;20497;-68
2023/01/05 03:17:55;;;;;;;46.50;10.38;;;12.30;99.90;;;12.26;91.39;101575.78;5076185;28;20126;-69
2023/01/05 03:20:28;;;;;;;39.67;10.23;;;12.30;99.90;;;12.55;91.28;101611.16;5076103;28;20469;-68
2023/01/05 03:37:27;;;;;;;48.40;10.25;;;12.30;99.90;;;12.42;92.74;101616.47;5092805;28;20078;-68
2023/01/05 03:39:56;;;;;;;58.17;11.77;;;12.30;99.90;;;12.44;92.88;101618.25;5075789;28;20044;-68
2023/01/05 03:42:25;;;;;;;51.00;11.07;;;12.30;99.90;;;12.40;93.11;101605.84;5075836;28;20493;-68
2023/01/05 03:44:54;;;;;;;45.97;10.57;;;12.30;99.90;;;12.33;92.96;101612.03;5093906;28;20040;-68
2023/01/05 03:47:24;;;;;;;51.53;11.65;;;12.20;99.90;;;12.42;93.04;101606.75;5075699;28;20444;-68
2023/01/05 03:49:54;;;;;;;47.80;10.63;;;12.30;99.90;;;12.44;92.97;101622.66;5075785;28;20052;-68
2023/01/05 03:52:22;;;;;;;57.13;11.60;;;12.30;99.90;;;11.70;93.38;101513.88;5093725;28;20047;-69
2023/01/05 03:54:51;;;;;;;58.17;10.93;;;12.30;99.90;;;12.36;93.49;101638.56;5075574;28;20289;-69
2023/01/05 03:57:19;;;;;;;51.65;11.23;;;12.20;99.90;;;12.48;93.26;101637.69;5074994;28;20094;-68
2023/01/05 03:59:48;;;;;;;48.25;10.93;;;12.30;99.90;;;12.42;93.40;101635.03;5093574;28;20039;-69
2023/01/05 04:02:17;;;;;;;50.63;11.32;;;12.30;99.90;;;12.41;93.66;101625.28;5075525;28;20131;-69
2023/01/05 04:04:46;;;;;;;54.15;12.60;;;12.30;99.90;;;12.43;93.51;101632.38;5075552;28;20528;-68
2023/01/05 04:07:16;;;;;;;47.28;10.48;;;12.30;99.90;;;12.24;93.42;101617.34;5075358;28;20051;-69
2023/01/05 04:09:45;;;;;;;48.53;10.93;;;12.20;99.90;;;12.39;93.38;101629.72;5093578;28;20040;-69
2023/01/05 04:12:13;;;;;;;47.80;11.07;;;12.30;99.90;;;12.37;93.66;101628.81;5075325;28;20490;-69
2023/01/05 04:14:44;;;;;;;47.47;10.98;;;12.20;99.90;;;12.41;93.67;101612.91;5075066;28;20135;-68
2023/01/05 04:17:13;;;;;;;47.72;11.13;;;12.30;99.90;;;12.46;93.31;101621.78;5075291;28;20048;-68
2023/01/05 04:19:42;;;;;;;52.38;11.02;;;12.30;99.90;;;12.41;93.22;101607.63;5075158;28;20094;-68
2023/01/05 04:22:11;;;;;;;47.53;10.70;;;12.30;99.90;;;12.41;93.47;101622.63;5075316;28;20048;-69
2023/01/05 04:24:41;;;;;;;57.45;10.82;;;12.30;99.90;;;12.46;93.09;101627.09;5075246;28;20052;-69
2023/01/05 04:27:10;;;;;;;48.53;10.07;;;12.30;99.90;;;12.49;93.22;101635.03;5074928;28;20187;-69
2023/01/05 04:29:39;;;;;;;53.40;11.02;;;12.30;99.90;;;12.41;93.09;101630.59;5075232;28;20427;-69
2023/01/05 04:32:08;;;;;;;51.55;10.70;;;12.30;99.90;;;12.44;93.35;101633.28;5075250;28;20048;-68
2023/01/05 04:34:38;;;;;;;48.40;12.00;;;12.30;99.90;;;12.38;93.20;101627.97;5075225;28;20097;-69
2023/01/05 04:37:07;;;;;;;56.55;11.43;;;12.30;99.90;;;12.49;92.83;101640.34;5075142;28;20044;-69
2023/01/05 04:39:36;;;;;;;52.25;11.27;;;12.30;99.90;;;12.48;93.17;101643.00;5075084;28;20048;-69
2023/01/05 04:42:06;;;;;;;49.38;10.63;;;12.30;99.90;;;12.54;92.76;101648.31;5075082;28;20047;-68
2023/01/05 04:44:35;;;;;;;57.58;11.40;;;12.40;99.90;;;12.52;92.55;101647.44;5075422;28;20444;-69
2023/01/05 04:47:05;;;;;;;52.38;10.77;;;12.40;99.90;;;12.60;92.30;101650.97;5075160;28;20094;-68
2023/01/05 04:49:39;;;;;;;45.50;10.25;;;12.40;99.90;;;12.61;92.23;101661.59;5075073;28;20450;-68
2023/01/05 04:52:09;;;;;;;55.67;12.75;;;12.50;99.90;;;12.55;92.49;101655.38;5075072;28;20056;-69
2023/01/05 04:54:38;;;;;;;52.17;10.15;;;12.40;99.90;;;12.44;92.85;101644.78;5074930;28;20047;-69
2023/01/05 04:57:09;;;;;;;51.17;10.77;;;12.30;99.90;;;12.50;92.93;101667.78;5075052;28;20109;-68
2023/01/05 04:59:39;;;;;;;52.53;10.93;;;12.30;99.90;;;12.44;92.93;101654.50;5074911;28;20475;-69
2023/01/05 05:02:10;;;;;;;45.63;11.10;;;12.30;99.90;;;12.46;92.90;101658.94;5074550;28;20047;-69
2023/01/05 05:04:41;;;;;;;52.10;10.93;;;12.30;99.90;;;12.46;92.81;101663.34;5074921;28;20052;-69
2023/01/05 05:07:10;;;;;;;54.50;11.20;;;12.30;99.90;;;12.44;93.19;101668.66;5093251;28;20102;-69
2023/01/05 05:09:39;;;;;;;51.63;11.30;;;12.30;99.90;;;12.49;93.14;101676.59;5094974;28;20078;-69
2023/01/05 05:12:09;;;;;;;52.00;11.73;;;12.30;99.90;;;12.46;92.96;101681.91;5078864;28;20121;-69
2023/01/05 05:14:39;;;;;;;54.88;13.50;;;12.30;99.90;;;12.46;93.00;101674.84;5078532;28;20048;-69
2023/01/05 05:17:07;;;;;;;42.78;10.65;;;12.30;99.90;;;12.49;92.98;101679.25;5078452;28;20040;-69
2023/01/05 05:19:36;;;;;;;50.50;11.02;;;12.30;99.90;;;12.26;92.64;101642.09;5078341;28;20500;-69
2023/01/05 05:22:04;;;;;;;54.65;11.63;;;12.30;99.90;;;12.53;92.96;101681.91;5096099;28;20044;-69
2023/01/05 05:24:33;;;;;;;62.00;12.82;;;12.40;99.90;;;12.51;92.54;101685.44;5078272;28;20477;-69
2023/01/05 05:27:01;;;;;;;57.60;12.40;;;12.40;99.90;;;12.47;92.62;101681.91;5096189;28;20047;-69
2023/01/05 05:29:31;;;;;;;49.50;10.27;;;12.30;99.90;;;12.47;92.54;101684.56;5096194;28;20046;-69
2023/01/05 05:31:59;;;;;;;50.10;10.68;;;12.40;99.90;;;12.49;92.50;101703.13;5096804;28;20040;-69
2023/01/05 05:34:28;;;;;;;49.25;10.70;;;12.40;99.90;;;11.78;92.57;101576.63;5096160;28;20036;-69
2023/01/05 05:36:56;;;;;;;56.08;11.77;;;12.40;99.90;;;12.47;92.36;101678.38;5095055;28;20131;-69
2023/01/05 05:39:24;;;;;;;52.60;10.68;;;12.40;99.90;;;12.51;92.15;101690.75;5096178;28;20370;-69
2023/01/05 05:41:53;;;;;;;55.28;11.25;;;12.30;99.90;;;12.41;92.18;101697.81;5096504;28;20048;-69
2023/01/05 05:44:21;;;;;;;57.38;11.52;;;12.30;99.90;;;12.54;92.16;101727.94;5095902;28;20032;-69
2023/01/05 05:46:51;;;;;;;47.78;10.07;;;12.40;99.90;;;12.56;91.87;101713.75;5095941;28;20122;-69
2023/01/05 05:49:19;;;;;;;56.17;10.63;;;12.40;99.90;;;12.53;91.87;101719.06;5077961;28;20139;-69
2023/01/05 05:51:48;;;;;;;55.92;11.18;;;12.40;99.90;;;12.64;91.39;101717.31;5096069;28;20044;-69
2023/01/05 05:54:16;;;;;;;58.63;12.00;;;12.50;99.90;;;12.65;91.32;101720.84;5096030;28;20036;-69
2023/01/05 05:56:45;;;;;;;47.83;11.48;;;12.50;99.90;;;12.71;90.90;101723.53;5095658;28;20036;-69
2023/01/05 05:59:13;;;;;;;53.20;12.13;;;12.50;99.90;;;12.64;91.15;101727.94;5095585;28;20074;-69
2023/01/05 06:01:41;;;;;;;53.30;10.82;;;12.50;99.90;;;12.69;90.71;101728.84;5096114;28;20131;-69
2023/01/05 06:04:11;;;;;;;53.03;10.80;;;12.60;99.90;;;12.72;90.31;101741.19;5095822;28;20585;-68
2023/01/05 06:06:40;;;;;;;56.43;11.00;;;12.60;99.90;;;12.68;90.62;101734.13;5095819;28;20407;-68
2023/01/05 06:09:08;;;;;;;51.95;10.77;;;12.60;99.90;;;12.48;90.47;101707.59;5095425;28;20036;-68
2023/01/05 06:11:36;;;;;;;50.35;10.13;;;12.50;99.90;;;12.72;90.42;101740.34;5095388;28;20429;-68
2023/01/05 06:14:06;;;;;;;48.90;10.60;;;12.60;99.90;;;12.64;90.38;101737.66;5077259;28;20084;-68
2023/01/05 06:16:35;;;;;;;60.47;11.52;;;12.50;99.90;;;12.67;90.31;101742.97;5095815;28;20066;-68
2023/01/05 06:19:03;;;;;;;49.92;10.85;;;12.50;99.90;;;12.42;90.79;101720.84;5095124;28;20225;-68
2023/01/05 06:21:33;;;;;;;47.97;11.13;;;12.40;99.90;;;12.51;90.99;101743.84;5076608;28;20079;-68
2023/01/05 06:24:01;;;;;;;42.27;10.67;;;12.30;99.90;;;12.51;90.91;101742.06;5077190;28;20473;-68
2023/01/05 06:26:30;;;;;;;50.72;10.23;;;12.40;99.90;;;12.28;90.87;101717.25;5095392;28;20064;-68
2023/01/05 06:28:58;;;;;;;51.15;11.73;;;12.30;99.90;;;12.58;90.78;101748.28;5095061;28;20452;-69
2023/01/05 06:31:26;;;;;;;50.03;10.95;;;12.40;99.90;;;12.45;90.97;101743.81;5095241;28;20044;-68
2023/01/05 06:33:55;;;;;;;47.38;10.98;;;12.40;99.90;;;12.42;91.18;101754.44;5094846;28;20042;-68
2023/01/05 06:36:23;;;;;;;52.03;11.15;;;12.30;99.90;;;12.53;90.83;101756.22;5094820;28;20048;-68
2023/01/05 06:38:53;;;;;;;49.08;11.20;;;12.40;99.90;;;12.41;91.41;101763.25;5094867;28;20044;-67
2023/01/05 06:41:21;;;;;;;55.67;11.00;;;12.30;99.90;;;12.34;91.53;101748.22;5094696;28;20119;-67
2023/01/05 06:43:49;;;;;;;57.85;11.57;;;12.30;99.90;;;12.51;91.15;101789.84;5094641;28;20040;-65
2023/01/05 06:46:18;;;;;;;55.05;11.65;;;12.30;99.90;;;12.47;91.23;101765.94;5094853;28;20454;-66
2023/01/05 06:48:46;;;;;;;52.25;11.32;;;12.30;99.90;;;12.39;91.21;101772.97;5076466;28;20139;-66
2023/01/05 06:51:15;;;;;;;58.55;11.20;;;12.20;99.90;;;12.46;91.31;101775.69;5094589;28;20044;-66
2023/01/05 06:53:43;;;;;;;52.45;11.20;;;12.30;99.90;;;12.33;91.63;101779.16;5076921;28;20043;-66
2023/01/05 06:56:13;;;;;;;52.72;11.18;;;12.20;99.90;;;12.41;91.59;101787.13;5094794;28;20379;-66
2023/01/05 06:58:41;;;;;;;50.33;11.10;;;12.30;99.90;;;12.31;91.47;101783.56;5094728;28;20048;-66
2023/01/05 07:01:09;;;;;;;55.80;11.75;;;12.20;99.90;;;12.10;91.95;101748.16;5094602;28;20044;-66
2023/01/05 07:03:38;;;;;;;58.33;11.10;;;12.20;99.90;;;12.25;92.00;101780.03;5094337;28;20451;-67
2023/01/05 07:06:07;;;;;;;49.63;10.73;;;12.10;99.90;;;12.21;92.43;101797.72;5094199;28;20447;-66
2023/01/05 07:08:42;;;;;;;63.47;12.70;;;12.10;99.90;;;12.31;92.25;101795.97;5094305;28;20097;-66
2023/01/05 07:11:12;;;;;;;57.65;11.95;;;12.10;99.90;;;12.31;92.28;101806.59;5076345;28;20425;-66
2023/01/05 07:13:41;;;;;;;48.78;11.00;;;12.10;99.90;;;12.32;92.29;101798.63;5094288;28;20067;-66
2023/01/05 07:16:09;;;;;;;63.70;12.77;;;12.20;99.90;;;12.37;92.30;101798.63;5094095;28;20055;-66
2023/01/05 07:18:37;;;;;;;51.08;11.98;;;12.20;99.90;;;12.42;91.91;101804.84;5075900;28;20052;-67
2023/01/05 07:21:06;;;;;;;58.15;11.77;;;12.20;99.90;;;12.38;92.06;101795.09;5094021;28;20051;-66
2023/01/05 07:23:36;;;;;;;47.10;11.55;;;12.20;99.90;;;12.35;92.05;101798.63;5093887;28;20043;-65
2023/01/05 07:26:05;;;;;;;62.88;12.88;;;12.20;99.90;;;12.44;91.91;101795.13;5094417;28;20043;-66
2023/01/05 07:28:35;;;;;;;48.58;11.40;;;12.30;99.90;;;12.26;92.22;101803.91;5093607;28;20044;-66
2023/01/05 07:31:06;;;;;;;45.67;10.55;;;12.10;99.90;;;12.27;92.25;101799.50;5094190;28;20044;-66
2023/01/05 07:33:35;;;;;;;48.47;10.98;;;12.10;99.90;;;12.36;91.89;101811.03;5074900;28;20047;-66
2023/01/05 07:36:08;;;;;;;57.35;11.80;;;12.20;99.90;;;12.21;91.78;101784.47;5093729;28;20059;-69
2023/01/05 07:38:37;;;;;;;52.15;12.10;;;12.20;99.90;;;12.39;91.52;101804.81;5075782;28;20067;-69
2023/01/05 07:41:05;;;;;;;54.03;11.02;;;12.20;99.90;;;12.35;91.69;101803.94;5093609;28;20516;-68
2023/01/05 07:43:35;;;;;;;54.05;12.32;;;12.20;99.90;;;12.40;91.24;101801.31;5093848;28;20162;-68
2023/01/05 07:46:04;;;;;;;47.25;10.73;;;12.20;99.90;;;12.30;91.73;101810.09;5094165;28;20488;-68
2023/01/05 07:48:33;;;;;;;50.03;11.02;;;12.20;99.90;;;12.40;91.67;101811.91;5093511;28;20059;-67
2023/01/05 07:51:03;;;;;;;49.75;10.90;;;12.20;99.90;;;12.28;91.50;101826.03;5093780;28;20516;-67
2023/01/05 07:53:36;;;;;;;40.87;9.93;;;12.20;99.90;;;12.44;91.37;101814.59;5093563;28;20119;-67
2023/01/05 07:56:13;;;;;;;54.15;11.10;;;12.20;99.90;;;12.36;91.22;101819.00;5093799;28;20040;-67
2023/01/05 07:58:42;;;;;;;46.78;11.55;;;12.20;99.90;;;12.44;91.39;101819.00;5093410;28;20089;-67
2023/01/05 08:01:13;;;;;;;50.10;11.30;;;12.30;99.90;;;11.81;91.15;101718.00;5093606;28;20378;-69
2023/01/05 08:03:42;;;;;;;54.38;11.57;;;12.30;99.90;;;12.34;91.34;101830.47;5093363;28;20123;-67
2023/01/05 08:06:13;;;;;;;55.35;11.38;;;12.20;99.90;;;12.38;91.16;101835.81;5093253;28;20038;-68
2023/01/05 08:08:42;;;;;;;55.50;10.90;;;12.20;99.90;;;12.39;91.34;101848.16;5093165;28;20036;-68
2023/01/05 08:11:14;;;;;;;54.45;12.57;;;12.30;99.90;;;12.46;91.03;101844.69;5075250;28;20455;-67
2023/01/05 08:13:59;;;;;;;41.97;11.48;;;12.30;99.90;;;12.54;90.68;101845.56;5093003;28;20051;-68
2023/01/05 08:16:29;;;;;;;46.20;10.40;;;12.30;99.90;;;12.52;90.16;101846.47;5093147;28;20094;-67
2023/01/05 08:18:58;;;;;;;54.35;12.20;;;12.40;99.90;;;12.45;90.08;101831.38;5075276;28;20408;-68
2023/01/05 08:21:27;;;;;;;51.28;11.80;;;12.40;99.90;;;12.65;89.64;101869.50;5092958;28;20036;-67
2023/01/05 08:23:58;;;;;;;47.60;11.40;;;12.50;99.90;;;12.64;89.36;101867.72;5075509;28;20097;-67
2023/01/05 08:26:26;;;;;;;;;;;12.50;99.90;;;12.64;89.33;101870.38;5093508;28;20062;-69
2023/01/05 08:28:56;;;;;;;50.25;10.20;;;12.50;99.90;;;12.58;89.23;101875.69;5093118;28;19923;-67
2023/01/05 08:31:27;;;;;;;48.63;10.17;;;12.50;99.90;;;12.51;89.13;101863.25;5093478;28;20131;-67
2023/01/05 08:33:58;;;;;;;57.80;12.57;;;12.40;99.90;;;12.56;89.47;101885.41;5092833;28;20052;-67
2023/01/05 08:36:27;;;;;;;52.35;11.57;;;12.40;99.90;;;12.57;89.75;101880.09;5092957;28;20051;-67
2023/01/05 08:38:56;;;;;;;53.05;12.23;;;12.40;99.90;;;12.60;89.60;101884.53;5093175;28;20052;-67
2023/01/05 08:41:27;;;;;;;54.90;12.20;;;12.40;99.90;;;12.46;90.28;101886.25;5093005;28;20160;-68
2023/01/05 08:43:58;;;;;;;50.45;11.18;;;12.40;99.90;;;12.50;90.16;101878.28;5094140;28;20048;-67
2023/01/05 08:46:32;;;;;;;48.67;11.13;;;12.40;99.90;;;12.52;89.95;101892.44;5097267;28;20048;-69
2023/01/05 08:49:04;;;;;;;51.83;12.07;;;12.40;99.90;;;12.51;90.55;101890.69;5097303;28;20086;-67
2023/01/05 08:51:32;;;;;;;53.00;11.68;;;12.30;99.90;;;12.62;89.84;101890.72;5097175;28;20044;-67
2023/01/05 08:54:01;;;;;;;50.35;11.02;;;12.50;99.90;;;12.72;89.81;101894.31;5096936;28;20044;-66
2023/01/05 08:56:31;;;;;;;49.88;11.15;;;12.50;99.90;;;12.62;90.27;101893.38;5096763;28;20109;-66
2023/01/05 08:59:11;;;;;;;45.97;10.57;;;12.50;99.90;;;12.62;90.03;101891.59;5097390;28;20066;-67
2023/01/05 09:01:40;;;;;;;53.33;12.18;;;12.40;99.90;;;12.64;90.01;101880.97;5096736;28;20112;-66
2023/01/05 09:04:09;;;;;;;55.22;12.43;;;12.50;99.90;;;12.59;90.26;101885.41;5096635;28;20101;-67
2023/01/05 09:06:37;;;;;;;55.55;11.10;;;12.40;99.90;;;12.69;89.95;101890.75;5096542;28;20040;-66
2023/01/05 09:09:07;;;;;;;49.50;10.95;;;12.50;99.90;;;12.61;89.89;101886.28;5096569;28;20601;-67
2023/01/05 09:11:36;;;;;;;59.85;12.63;;;12.50;99.90;;;12.73;89.91;101891.66;5096537;28;20074;-66
2023/01/05 09:14:04;;;;;;;56.15;12.20;;;12.60;99.90;;;12.69;89.71;101871.28;5096378;28;20055;-66
2023/01/05 09:16:35;;;;;;;53.83;11.68;;;12.70;99.90;;;13.10;89.31;101904.19;5096471;28;20040;-66
2023/01/05 09:19:23;;;;;;;53.42;11.60;;;12.80;99.90;;;13.34;87.63;101920.16;5096260;28;20044;-67
2023/01/05 09:21:52;;;;;;;46.33;10.20;;;13.10;99.90;;;13.44;86.60;101921.03;5096519;28;20071;-67
2023/01/05 09:24:20;;;;;;;43.80;11.13;;;13.20;99.90;;;13.39;86.35;101920.16;5096686;28;20044;-67
2023/01/05 09:26:49;;;;;;;52.72;10.98;;;13.20;99.90;;;13.36;86.16;101922.78;5096223;28;20047;-67
2023/01/05 09:29:17;;;;;;;51.45;11.80;;;13.30;99.90;;;13.41;86.08;101921.91;5096230;28;20036;-66
2023/01/05 09:31:47;;;;;;;54.58;11.63;;;13.20;99.90;;;13.48;85.97;101922.81;5096455;28;20064;-67
2023/01/05 09:34:17;;;;;;;54.23;11.70;;;13.30;99.90;;;13.48;85.85;101930.78;5096069;28;20093;-67
2023/01/05 09:36:46;;;;;;;58.60;11.13;;;13.30;99.90;;;13.39;86.27;101941.41;5096371;28;20044;-67
2023/01/05 09:39:14;;;;;;;56.70;12.57;;;13.20;99.90;;;13.37;86.34;101938.78;5095896;28;20040;-66
2023/01/05 09:41:46;;;;;;;59.92;11.93;;;13.20;99.90;;;13.33;86.42;101929.03;5095886;28;20396;-67
2023/01/05 09:44:28;;;;;;;47.45;11.63;;;13.20;99.90;;;13.37;86.55;101945.84;5095831;28;20075;-66
2023/01/05 09:47:04;;;;;;;43.58;11.68;;;13.20;99.90;;;13.44;86.68;101944.97;5095902;28;20040;-67
2023/01/05 09:49:34;;;;;;;59.67;12.25;;;13.20;99.90;;;13.36;87.12;101930.78;5096165;28;20119;-66
2023/01/05 09:52:08;;;;;;;56.30;12.82;;;13.30;99.90;;;13.69;87.31;101953.81;5095831;28;20040;-67
2023/01/05 09:54:38;;;;;;;67.57;12.10;;;13.50;99.90;;;13.73;86.91;101966.25;5095681;28;20489;-66
2023/01/05 09:57:16;;;;;;;53.88;12.15;;;13.50;99.90;;;13.66;87.03;101976.00;5094693;28;20149;-67
2023/01/05 09:59:46;;;;;;;62.35;13.07;;;13.50;99.90;;;13.79;87.22;101987.53;5096013;28;20071;-67
2023/01/05 10:02:21;;;;;;;;;;;13.60;99.90;;;13.80;87.33;101962.72;5096003;28;20044;-66
2023/01/05 10:04:50;;;;;;;59.42;13.02;;;13.60;99.90;;;14.12;87.47;101963.56;5095633;28;19919;-66
2023/01/05 10:07:30;;;;;;;59.97;13.20;;;13.90;99.90;;;14.45;86.40;101966.19;5095468;28;20067;-67
2023/01/05 10:10:06;;;;;;;63.28;13.13;;;14.20;99.90;;;14.74;85.81;101959.00;5095333;28;20632;-66
2023/01/05 10:15:41;;;;;;;55.55;12.60;;;14.80;99.90;;;15.06;82.40;101965.06;5095619;28;20478;-67
2023/01/05 10:18:15;;;;;;;54.67;12.50;;;14.90;99.90;;;14.79;81.76;101956.34;5095263;28;20044;-67
2023/01/05 10:21:01;;;;;;;45.58;11.45;;;14.80;99.90;;;14.95;81.59;101961.56;5095169;28;20127;-67
2023/01/05 10:23:47;;;;;;;45.85;11.27;;;14.80;99.90;;;15.10;81.28;101971.25;5095419;28;20044;-67
2023/01/05 10:26:23;;;;;;;58.08;12.05;;;14.90;99.90;;;15.07;80.89;101974.84;5095386;28;20054;-67
2023/01/05 10:29:01;;;;;;;49.70;12.20;;;15.00;99.90;;;15.05;80.78;101967.75;5095078;28;20111;-67
2023/01/05 10:31:44;;;;;;;57.50;11.52;;;14.90;99.90;;;14.98;81.32;101969.53;5095292;28;20044;-67
2023/01/05 10:34:22;;;;;;;55.95;12.07;;;14.80;99.90;;;15.01;80.66;101969.53;5095293;28;20051;-67
2023/01/05 10:37:13;;;;;;;53.00;12.45;;;14.80;99.90;;;15.21;80.88;101967.63;5095015;28;20028;-67
2023/01/05 10:40:03;;;;;;;48.38;12.27;;;15.00;99.90;;;15.46;79.70;101967.53;5076643;28;20052;-67
2023/01/05 10:42:46;;;;;;;50.25;11.27;;;15.30;99.90;;;15.46;78.56;101979.09;5094594;28;20040;-68
2023/01/05 10:45:17;;;;;;;47.28;12.38;;;15.30;99.90;;;15.82;78.74;101973.47;5095332;28;20044;-67
2023/01/05 10:47:46;;;;;;;47.33;11.25;;;15.60;99.90;;;16.14;76.85;101978.53;5094661;28;20448;-67
2023/01/05 10:50:35;;;;;;;52.70;12.00;;;16.00;99.90;;;16.30;76.38;101977.47;5095170;28;20486;-67